Time;durP1;ratioP1;P1;durP2;ratioP2;P2;SDS_P1;SDS_P2;PMS_P1;PMS_P2;Temp;Humidity;BMP_temperature;BMP_pressure;BME280_temperature;BME280_humidity;BME280_pressure;Samples;Min_cycle;Max_cycle;Signal;HPM_P1;HPM_P2
2022/06/15 00:01:29;;;;;;;3.40;2.53;;;;;;;;;;4192089;34;20566;-61
2022/06/15 00:03:55;;;;;;;8.02;2.90;;;;;;;;;;4192202;34;20114;-61
2022/06/15 00:35:17;;;;;;;3.55;2.37;;;;;;;;;;4257455;28;20553;-60
2022/06/15 00:37:44;;;;;;;8.38;2.40;;;;;;;;;;4227520;33;20429;-61
2022/06/15 00:40:10;;;;;;;3.20;2.62;;;;;;;;;;4210506;34;20102;-62
2022/06/15 00:42:36;;;;;;;3.85;2.35;;;;;;;;;;4219609;34;20131;-60
2022/06/15 00:45:02;;;;;;;6.57;2.58;;;;;;;;;;4232582;33;20109;-60
2022/06/15 00:47:34;;;;;;;4.15;2.78;;;;;;;;;;4233634;33;20119;-60
2022/06/15 00:50:21;;;;;;;10.23;3.15;;;;;;;;;;4228335;33;20619;-60
2022/06/15 00:52:53;;;;;;;6.30;3.33;;;;;;;;;;4215117;33;20101;-60
2022/06/15 00:55:22;;;;;;;6.05;3.33;;;;;;;;;;4233126;33;20192;-61
2022/06/15 00:57:48;;;;;;;14.07;3.78;;;;;;;;;;4233251;33;20136;-59
2022/06/15 01:00:15;;;;;;;6.97;2.83;;;;;;;;;;4233388;33;20102;-60
2022/06/15 01:02:41;;;;;;;4.68;2.90;;;;;;;;;;4232810;33;20121;-60
2022/06/15 01:05:14;;;;;;;7.90;3.03;;;;;;;;;;4233073;33;20119;-60
2022/06/15 01:07:52;;;;;;;7.95;2.97;;;;;;;;;;4233228;33;20124;-58
2022/06/15 01:10:49;;;;;;;6.00;3.15;;;;;;;;;;4208329;34;20615;-60
2022/06/15 01:13:26;;;;;;;5.10;2.90;;;;;;;;;;4219313;34;20130;-61
2022/06/15 01:16:16;;;;;;;5.32;3.03;;;;;;;;;;4206156;34;20502;-61
2022/06/15 01:18:56;;;;;;;9.57;3.53;;;;;;;;;;4205412;34;20128;-60
2022/06/15 01:21:50;;;;;;;5.65;3.28;;;;;;;;;;4205181;34;20538;-60
2022/06/15 01:24:31;;;;;;;5.82;2.97;;;;;;;;;;4203794;34;20533;-61
2022/06/15 01:27:24;;;;;;;5.05;2.80;;;;;;;;;;4203999;34;20098;-61
2022/06/15 01:30:05;;;;;;;8.60;3.30;;;;;;;;;;4205085;34;20141;-61
2022/06/15 01:33:04;;;;;;;8.93;3.30;;;;;;;;;;4205284;34;20109;-61
2022/06/15 01:35:49;;;;;;;6.40;3.60;;;;;;;;;;4211450;34;20200;-60
2022/06/15 01:38:30;;;;;;;7.32;2.83;;;;;;;;;;4218667;34;20136;-60
2022/06/15 01:41:44;;;;;;;9.57;3.25;;;;;;;;;;4205870;34;20117;-60
2022/06/15 01:44:17;;;;;;;7.22;2.90;;;;;;;;;;4212814;34;20102;-60
2022/06/15 01:46:45;;;;;;;4.85;3.00;;;;;;;;;;4203416;34;20124;-61
2022/06/15 01:49:24;;;;;;;5.95;2.92;;;;;;;;;;4218858;34;20104;-60
2022/06/15 01:51:50;;;;;;;10.35;2.90;;;;;;;;;;4205816;34;20716;-59
2022/06/15 01:54:42;;;;;;;6.95;2.67;;;;;;;;;;4194662;34;20105;-60
2022/06/15 01:57:09;;;;;;;4.18;2.53;;;;;;;;;;4213688;34;20140;-60
2022/06/15 01:59:49;;;;;;;3.40;2.33;;;;;;;;;;4218977;34;20128;-60
2022/06/15 02:02:33;;;;;;;4.47;2.50;;;;;;;;;;4205961;34;20109;-60
2022/06/15 02:05:06;;;;;;;5.20;2.62;;;;;;;;;;4218540;34;20134;-60
2022/06/15 02:07:38;;;;;;;7.68;2.85;;;;;;;;;;4205757;34;20128;-60
2022/06/15 02:10:16;;;;;;;12.23;2.80;;;;;;;;;;4227898;33;20183;-60
2022/06/15 02:13:24;;;;;;;3.28;2.62;;;;;;;;;;4219745;33;20255;-61
2022/06/15 02:15:54;;;;;;;3.10;2.42;;;;;;;;;;4181513;33;20126;-60
2022/06/15 02:18:22;;;;;;;4.87;2.83;;;;;;;;;;4219722;33;20546;-60
2022/06/15 02:20:51;;;;;;;5.47;2.25;;;;;;;;;;4232693;33;20129;-61
2022/06/15 02:23:18;;;;;;;8.02;2.17;;;;;;;;;;4219646;33;20446;-61
2022/06/15 02:25:49;;;;;;;14.45;3.25;;;;;;;;;;4219346;33;20536;-61
2022/06/15 02:28:17;;;;;;;8.20;2.10;;;;;;;;;;4219674;33;20140;-61
2022/06/15 02:30:44;;;;;;;6.22;2.20;;;;;;;;;;4219379;33;20114;-62
2022/06/15 02:33:31;;;;;;;3.62;2.12;;;;;;;;;;4219461;33;20105;-61
2022/06/15 02:35:58;;;;;;;2.60;2.40;;;;;;;;;;4226345;33;20198;-60
2022/06/15 02:38:25;;;;;;;7.32;2.72;;;;;;;;;;4218416;34;20188;-60
2022/06/15 02:40:51;;;;;;;6.87;2.72;;;;;;;;;;4218548;34;20121;-61
2022/06/15 02:43:24;;;;;;;3.37;2.00;;;;;;;;;;4218071;34;20115;-61
2022/06/15 02:45:51;;;;;;;2.67;2.22;;;;;;;;;;4205378;34;20125;-61
2022/06/15 02:48:17;;;;;;;3.17;2.22;;;;;;;;;;4218090;34;20127;-61
2022/06/15 02:51:25;;;;;;;8.68;2.30;;;;;;;;;;4205138;34;20170;-61
2022/06/15 02:53:54;;;;;;;5.40;2.12;;;;;;;;;;4208204;34;20176;-61
2022/06/15 02:56:20;;;;;;;4.07;2.40;;;;;;;;;;4205465;34;20746;-61
2022/06/15 02:58:48;;;;;;;2.67;2.00;;;;;;;;;;4218202;34;20482;-61
2022/06/15 03:01:15;;;;;;;4.45;2.00;;;;;;;;;;4218143;33;20461;-64
2022/06/15 03:03:41;;;;;;;3.85;2.55;;;;;;;;;;4229273;33;20105;-61
2022/06/15 03:06:11;;;;;;;5.00;1.85;;;;;;;;;;4232184;33;20108;-62
2022/06/15 03:08:37;;;;;;;1.80;1.70;;;;;;;;;;4232290;33;20501;-62
2022/06/15 03:11:04;;;;;;;1.77;1.60;;;;;;;;;;4227439;33;20120;-62
2022/06/15 03:13:30;;;;;;;3.10;1.85;;;;;;;;;;4211915;33;20114;-61
2022/06/15 03:16:00;;;;;;;4.87;2.20;;;;;;;;;;4217798;34;20121;-62
2022/06/15 03:18:26;;;;;;;5.37;2.20;;;;;;;;;;4205236;34;20129;-62
2022/06/15 03:20:57;;;;;;;4.80;2.35;;;;;;;;;;4204905;34;20104;-61
2022/06/15 03:23:23;;;;;;;5.85;2.05;;;;;;;;;;4218170;34;20144;-61
2022/06/15 03:25:54;;;;;;;2.40;2.20;;;;;;;;;;4217812;34;20509;-61
2022/06/15 03:28:20;;;;;;;5.70;2.20;;;;;;;;;;4204782;34;20752;-62
2022/06/15 03:30:46;;;;;;;3.58;2.03;;;;;;;;;;4224624;33;20144;-66
2022/06/15 03:33:12;;;;;;;9.50;2.30;;;;;;;;;;4224184;33;20562;-63
2022/06/15 03:35:39;;;;;;;3.03;2.42;;;;;;;;;;4214491;34;20117;-62
2022/06/15 03:38:08;;;;;;;9.05;2.20;;;;;;;;;;4217583;34;20147;-62
2022/06/15 03:40:41;;;;;;;7.68;2.42;;;;;;;;;;4215958;34;20093;-61
2022/06/15 03:43:07;;;;;;;5.75;2.10;;;;;;;;;;4217681;34;20129;-62
2022/06/15 03:45:33;;;;;;;14.32;2.50;;;;;;;;;;4217863;34;20129;-62
2022/06/15 03:47:59;;;;;;;3.28;2.10;;;;;;;;;;4204688;34;20201;-62
2022/06/15 03:50:28;;;;;;;4.78;2.35;;;;;;;;;;4217635;34;20665;-62
2022/06/15 03:52:54;;;;;;;2.37;1.90;;;;;;;;;;4217475;34;20130;-62
2022/06/15 03:55:20;;;;;;;5.05;2.08;;;;;;;;;;4217514;34;20120;-62
2022/06/15 03:57:47;;;;;;;3.62;2.28;;;;;;;;;;4217492;34;20121;-62
2022/06/15 04:00:15;;;;;;;3.87;1.77;;;;;;;;;;4218115;34;20125;-62
2022/06/15 04:02:41;;;;;;;5.95;1.90;;;;;;;;;;4219542;34;20143;-62
2022/06/15 04:05:09;;;;;;;5.53;2.30;;;;;;;;;;4219582;34;20133;-62
2022/06/15 04:10:20;;;;;;;3.45;2.10;;;;;;;;;;4219555;34;20121;-62
2022/06/15 04:12:45;;;;;;;5.45;2.10;;;;;;;;;;4219539;34;21067;-62
2022/06/15 04:15:12;;;;;;;6.78;1.77;;;;;;;;;;4219571;34;20185;-62
2022/06/15 04:17:38;;;;;;;2.75;2.03;;;;;;;;;;4219575;34;20204;-61
2022/06/15 04:22:50;;;;;;;3.47;2.40;;;;;;;;;;4219489;34;20137;-61
2022/06/15 04:25:16;;;;;;;4.93;2.10;;;;;;;;;;4219660;34;20105;-61
2022/06/15 04:27:43;;;;;;;13.98;2.40;;;;;;;;;;4219491;34;20124;-61
2022/06/15 04:30:12;;;;;;;10.10;2.25;;;;;;;;;;4219489;34;20132;-61
2022/06/15 04:32:38;;;;;;;4.55;2.10;;;;;;;;;;4219554;34;20185;-61
2022/06/15 04:35:04;;;;;;;4.25;2.20;;;;;;;;;;4219218;34;20443;-61
2022/06/15 04:37:30;;;;;;;2.85;2.28;;;;;;;;;;4217964;34;20757;-61
2022/06/15 04:39:56;;;;;;;6.53;1.95;;;;;;;;;;4219666;34;20097;-62
2022/06/15 04:42:22;;;;;;;3.45;1.92;;;;;;;;;;4219585;34;20112;-63
2022/06/15 04:44:48;;;;;;;3.72;1.83;;;;;;;;;;4206646;34;20116;-64
2022/06/15 04:47:14;;;;;;;2.87;2.15;;;;;;;;;;4219369;34;20101;-64
2022/06/15 04:49:40;;;;;;;3.00;1.95;;;;;;;;;;4218115;34;20193;-63
2022/06/15 04:52:06;;;;;;;3.55;1.87;;;;;;;;;;4219393;34;20192;-64
2022/06/15 04:54:32;;;;;;;5.55;1.85;;;;;;;;;;4219194;34;20458;-62
2022/06/15 04:56:58;;;;;;;9.98;2.08;;;;;;;;;;4219310;34;20119;-63
2022/06/15 04:59:24;;;;;;;1.70;1.50;;;;;;;;;;4219197;34;20617;-63
2022/06/15 05:01:50;;;;;;;2.75;1.70;;;;;;;;;;4219360;34;20213;-63
2022/06/15 05:04:16;;;;;;;2.47;2.00;;;;;;;;;;4219408;34;20221;-63
2022/06/15 05:06:42;;;;;;;5.12;2.30;;;;;;;;;;4219010;34;20112;-67
2022/06/15 05:09:11;;;;;;;3.03;2.05;;;;;;;;;;4206445;34;20101;-63
2022/06/15 05:11:37;;;;;;;9.13;1.83;;;;;;;;;;4218631;34;20132;-63
2022/06/15 05:14:03;;;;;;;9.32;2.53;;;;;;;;;;4219296;34;20209;-64
2022/06/15 05:16:29;;;;;;;9.40;2.00;;;;;;;;;;4218964;34;20112;-64
2022/06/15 05:18:55;;;;;;;6.05;2.05;;;;;;;;;;4219270;34;20132;-64
2022/06/15 05:21:22;;;;;;;6.95;1.83;;;;;;;;;;4218860;34;20213;-65
2022/06/15 05:23:48;;;;;;;1.70;1.60;;;;;;;;;;4218964;34;20132;-64
2022/06/15 05:26:14;;;;;;;2.45;1.65;;;;;;;;;;4218875;34;20234;-64
2022/06/15 05:28:46;;;;;;;2.15;1.73;;;;;;;;;;4206142;34;20121;-65
2022/06/15 05:31:16;;;;;;;2.42;1.80;;;;;;;;;;4218871;34;20992;-63
2022/06/15 05:33:43;;;;;;;2.30;1.70;;;;;;;;;;4218704;34;20114;-64
2022/06/15 05:36:11;;;;;;;8.45;2.15;;;;;;;;;;4218949;34;20202;-63
2022/06/15 05:38:37;;;;;;;9.52;2.28;;;;;;;;;;4218942;34;20530;-65
2022/06/15 05:41:04;;;;;;;6.95;3.25;;;;;;;;;;4205881;34;20114;-63
2022/06/15 05:43:33;;;;;;;3.55;1.80;;;;;;;;;;4205868;34;20141;-66
2022/06/15 05:45:59;;;;;;;4.35;2.22;;;;;;;;;;4205581;34;20706;-64
2022/06/15 05:48:25;;;;;;;5.43;2.03;;;;;;;;;;4218760;34;20121;-64
2022/06/15 05:50:51;;;;;;;3.12;2.33;;;;;;;;;;4218693;34;20447;-63
2022/06/15 05:53:17;;;;;;;6.43;1.90;;;;;;;;;;4218601;34;20188;-63
2022/06/15 05:55:43;;;;;;;5.10;2.12;;;;;;;;;;4218947;34;20183;-66
2022/06/15 05:58:09;;;;;;;8.48;2.50;;;;;;;;;;4218807;34;20173;-64
2022/06/15 06:00:35;;;;;;;3.47;1.60;;;;;;;;;;4218902;34;20117;-63
2022/06/15 06:03:01;;;;;;;3.22;2.70;;;;;;;;;;4218793;34;20117;-63
2022/06/15 06:05:27;;;;;;;5.70;2.60;;;;;;;;;;4218658;34;20212;-63
2022/06/15 06:07:54;;;;;;;3.75;2.10;;;;;;;;;;4218552;34;20215;-65
2022/06/15 06:10:20;;;;;;;6.82;2.25;;;;;;;;;;4218536;34;20172;-65
2022/06/15 06:12:46;;;;;;;4.37;2.05;;;;;;;;;;4218733;34;20094;-62
2022/06/15 06:15:12;;;;;;;4.57;2.03;;;;;;;;;;4218429;34;20116;-63
2022/06/15 06:17:38;;;;;;;9.90;2.17;;;;;;;;;;4218471;34;20121;-63
2022/06/15 06:20:04;;;;;;;6.97;2.70;;;;;;;;;;4218697;34;20459;-62
2022/06/15 06:22:30;;;;;;;2.70;2.00;;;;;;;;;;4218423;34;20114;-62
2022/06/15 06:24:56;;;;;;;2.22;2.03;;;;;;;;;;4217458;34;20844;-63
2022/06/15 06:27:22;;;;;;;2.00;1.77;;;;;;;;;;4218402;34;20212;-63
2022/06/15 06:29:48;;;;;;;8.48;2.20;;;;;;;;;;4218244;34;20115;-62
2022/06/15 06:32:15;;;;;;;2.53;1.75;;;;;;;;;;4218585;34;20671;-63
2022/06/15 06:34:41;;;;;;;1.60;1.45;;;;;;;;;;4205591;34;20116;-64
2022/06/15 06:37:07;;;;;;;4.22;1.70;;;;;;;;;;4218556;34;20105;-63
2022/06/15 06:39:34;;;;;;;4.22;1.98;;;;;;;;;;4218445;34;20117;-62
2022/06/15 06:42:01;;;;;;;7.18;2.12;;;;;;;;;;4205291;34;20208;-63
2022/06/15 06:44:27;;;;;;;5.32;1.90;;;;;;;;;;4218462;34;20117;-63
2022/06/15 06:46:54;;;;;;;5.00;2.00;;;;;;;;;;4218165;34;20546;-63
2022/06/15 06:49:21;;;;;;;3.58;1.90;;;;;;;;;;4218165;34;20530;-63
2022/06/15 06:51:47;;;;;;;7.60;1.98;;;;;;;;;;4218287;34;20214;-63
2022/06/15 06:54:15;;;;;;;2.22;1.73;;;;;;;;;;4218195;34;20097;-63
2022/06/15 06:56:42;;;;;;;4.93;2.12;;;;;;;;;;4205250;34;20530;-61
2022/06/15 06:59:10;;;;;;;1.60;1.50;;;;;;;;;;4205215;34;20132;-63
2022/06/15 07:01:38;;;;;;;4.20;1.87;;;;;;;;;;4218156;34;20629;-64
2022/06/15 07:04:05;;;;;;;10.93;2.25;;;;;;;;;;4218131;34;20201;-62
2022/06/15 07:06:31;;;;;;;4.97;2.40;;;;;;;;;;4218072;34;20109;-63
2022/06/15 07:08:57;;;;;;;2.67;1.62;;;;;;;;;;4217889;34;20137;-62
2022/06/15 07:11:23;;;;;;;1.80;1.70;;;;;;;;;;4218135;34;20105;-62
2022/06/15 07:13:49;;;;;;;1.60;1.50;;;;;;;;;;4205177;34;20115;-62
2022/06/15 07:16:17;;;;;;;7.30;1.95;;;;;;;;;;4218267;34;20208;-64
2022/06/15 07:18:45;;;;;;;4.40;2.05;;;;;;;;;;4217898;34;20122;-63
2022/06/15 07:21:15;;;;;;;2.58;2.00;;;;;;;;;;4205066;34;20530;-65
2022/06/15 07:23:44;;;;;;;7.37;2.20;;;;;;;;;;4205122;34;20189;-65
2022/06/15 07:26:14;;;;;;;2.62;1.95;;;;;;;;;;4218083;34;20209;-64
2022/06/15 07:28:42;;;;;;;3.95;2.35;;;;;;;;;;4217893;34;20117;-64
2022/06/15 07:31:08;;;;;;;3.40;1.90;;;;;;;;;;4217972;34;20712;-65
2022/06/15 07:33:36;;;;;;;2.53;1.77;;;;;;;;;;4217556;34;20544;-65
2022/06/15 07:36:03;;;;;;;2.65;2.05;;;;;;;;;;4219304;34;20093;-63
2022/06/15 07:38:30;;;;;;;7.72;2.15;;;;;;;;;;4219846;34;20106;-64
2022/06/15 07:40:59;;;;;;;2.55;1.75;;;;;;;;;;4219819;34;20105;-65
2022/06/15 07:43:25;;;;;;;3.40;2.40;;;;;;;;;;4206972;34;20525;-69
2022/06/15 07:45:51;;;;;;;2.42;1.75;;;;;;;;;;4219782;34;20140;-65
2022/06/15 07:51:02;;;;;;;1.90;1.65;;;;;;;;;;4219774;34;20098;-65
2022/06/15 07:53:28;;;;;;;8.00;2.30;;;;;;;;;;4207047;34;20117;-64
2022/06/15 07:55:54;;;;;;;4.00;1.77;;;;;;;;;;4206825;34;20212;-63
2022/06/15 07:58:20;;;;;;;7.35;2.15;;;;;;;;;;4219700;34;20133;-66
2022/06/15 08:00:48;;;;;;;4.55;1.40;;;;;;;;;;4219996;34;20133;-62
2022/06/15 08:03:15;;;;;;;3.22;2.03;;;;;;;;;;4214233;34;20106;-64
2022/06/15 08:05:44;;;;;;;2.92;1.92;;;;;;;;;;4216424;34;20209;-64
2022/06/15 08:08:13;;;;;;;4.18;2.45;;;;;;;;;;4203792;34;20117;-64
2022/06/15 08:10:39;;;;;;;4.35;2.87;;;;;;;;;;4216631;34;20530;-66
2022/06/15 08:13:07;;;;;;;4.32;3.17;;;;;;;;;;4203199;34;20497;-65
2022/06/15 08:15:33;;;;;;;6.30;2.17;;;;;;;;;;4216549;34;20538;-63
2022/06/15 08:18:02;;;;;;;1.80;1.52;;;;;;;;;;4219167;34;20117;-66
2022/06/15 08:20:35;;;;;;;4.93;2.28;;;;;;;;;;4206431;34;20108;-65
2022/06/15 08:23:06;;;;;;;3.85;2.28;;;;;;;;;;4207016;34;20113;-69
2022/06/15 08:25:35;;;;;;;5.70;2.25;;;;;;;;;;4206697;34;20128;-67
2022/06/15 08:28:03;;;;;;;2.65;2.05;;;;;;;;;;4206330;34;20505;-67
2022/06/15 08:30:29;;;;;;;1.40;1.30;;;;;;;;;;4206590;34;20101;-65
2022/06/15 08:32:58;;;;;;;2.03;1.80;;;;;;;;;;4219266;34;20200;-71
2022/06/15 08:35:24;;;;;;;3.85;1.52;;;;;;;;;;4219411;34;20144;-64
2022/06/15 08:37:50;;;;;;;1.83;1.60;;;;;;;;;;4219381;34;20179;-66
2022/06/15 08:40:17;;;;;;;4.55;1.87;;;;;;;;;;4219384;34;20116;-62
2022/06/15 08:42:58;;;;;;;5.90;1.83;;;;;;;;;;4219285;34;20529;-64
2022/06/15 08:45:43;;;;;;;10.43;2.22;;;;;;;;;;4219381;34;20439;-61
2022/06/15 08:48:09;;;;;;;4.22;1.80;;;;;;;;;;4217651;34;20526;-60
2022/06/15 08:50:43;;;;;;;3.12;1.90;;;;;;;;;;4219196;34;20445;-58
2022/06/15 08:53:16;;;;;;;5.87;1.85;;;;;;;;;;4193133;34;20113;-60
2022/06/15 08:55:48;;;;;;;6.00;2.58;;;;;;;;;;4207999;33;20091;-60
2022/06/15 08:58:49;;;;;;;1.90;1.60;;;;;;;;;;4208466;33;20125;-60
2022/06/15 09:01:30;;;;;;;1.90;1.67;;;;;;;;;;4138005;34;20122;-60
2022/06/15 09:04:35;;;;;;;3.67;1.80;;;;;;;;;;4189737;34;20121;-57
2022/06/15 09:07:16;;;;;;;3.87;1.80;;;;;;;;;;4189869;34;20105;-58
2022/06/15 09:10:15;;;;;;;2.12;1.73;;;;;;;;;;4218259;34;20098;-57
2022/06/15 09:12:50;;;;;;;10.40;1.90;;;;;;;;;;4219334;34;20121;-59
2022/06/15 09:15:42;;;;;;;5.97;1.70;;;;;;;;;;4219371;34;20137;-57
2022/06/15 09:18:16;;;;;;;3.97;1.90;;;;;;;;;;4206163;34;20192;-59
2022/06/15 09:20:47;;;;;;;2.47;1.50;;;;;;;;;;4219009;34;20104;-58
2022/06/15 09:23:19;;;;;;;4.47;1.67;;;;;;;;;;4217372;34;20109;-60
2022/06/15 09:25:58;;;;;;;3.78;1.95;;;;;;;;;;4195084;34;20212;-60
2022/06/15 09:28:32;;;;;;;9.35;2.08;;;;;;;;;;4206019;34;20098;-60
2022/06/15 09:31:21;;;;;;;5.57;2.00;;;;;;;;;;4219323;34;20117;-59
2022/06/15 09:33:56;;;;;;;2.20;1.52;;;;;;;;;;4183187;34;20121;-58
2022/06/15 09:36:27;;;;;;;4.70;1.75;;;;;;;;;;4194922;34;20113;-59
2022/06/15 09:38:54;;;;;;;1.95;1.70;;;;;;;;;;4218982;34;20109;-59
2022/06/15 09:41:25;;;;;;;3.80;1.60;;;;;;;;;;4206296;34;20101;-58
2022/06/15 09:44:17;;;;;;;1.87;1.60;;;;;;;;;;4205835;34;20211;-60
2022/06/15 09:46:55;;;;;;;3.85;1.92;;;;;;;;;;4194683;34;20157;-59
2022/06/15 09:49:59;;;;;;;1.75;1.58;;;;;;;;;;4205912;34;20137;-60
2022/06/15 09:52:31;;;;;;;1.40;1.30;;;;;;;;;;4216426;34;20670;-58
2022/06/15 09:55:17;;;;;;;5.00;1.45;;;;;;;;;;4216012;34;20158;-60
2022/06/15 09:57:43;;;;;;;1.85;1.42;;;;;;;;;;4205344;34;20105;-60
2022/06/15 10:00:14;;;;;;;5.30;1.50;;;;;;;;;;4218090;34;20129;-61
2022/06/15 10:02:44;;;;;;;2.85;2.10;;;;;;;;;;4206021;34;20192;-62
2022/06/15 10:05:19;;;;;;;3.95;2.08;;;;;;;;;;4193754;34;20125;-62
2022/06/15 10:07:45;;;;;;;;;;;;;;;;;;4194124;34;20499;-62
2022/06/15 10:10:18;;;;;;;1.02;0.95;;;;;;;;;;4218241;34;20009;-62
2022/06/15 10:12:59;;;;;;;4.45;1.42;;;;;;;;;;4205629;34;20117;-59
2022/06/15 10:15:34;;;;;;;4.53;1.20;;;;;;;;;;4218546;34;20553;-59
2022/06/15 10:18:13;;;;;;;1.30;1.12;;;;;;;;;;4218459;34;20117;-58
2022/06/15 10:20:40;;;;;;;1.70;1.50;;;;;;;;;;4205553;34;20121;-59
2022/06/15 10:23:21;;;;;;;5.78;1.60;;;;;;;;;;4218471;34;20457;-59
2022/06/15 10:25:54;;;;;;;1.62;1.50;;;;;;;;;;4205614;34;20360;-63
2022/06/15 10:28:23;;;;;;;4.18;1.48;;;;;;;;;;4218493;34;20144;-61
2022/06/15 10:30:54;;;;;;;4.32;1.70;;;;;;;;;;4218622;34;20102;-61
2022/06/15 10:33:20;;;;;;;2.47;1.70;;;;;;;;;;4218204;34;20131;-61
2022/06/15 10:35:57;;;;;;;1.08;1.08;;;;;;;;;;4218269;34;20604;-59
2022/06/15 10:38:24;;;;;;;6.03;2.00;;;;;;;;;;4194175;34;20158;-59
2022/06/15 10:41:45;;;;;;;5.60;1.90;;;;;;;;;;4216682;34;20102;-59
2022/06/15 10:43:46;;;;;;;1.85;1.37;;;;;;;;;;4207700;34;20128;-60
2022/06/15 10:46:12;;;;;;;2.00;1.50;;;;;;;;;;4218275;34;20094;-66
2022/06/15 10:48:48;;;;;;;1.80;1.67;;;;;;;;;;4218310;34;20521;-65
2022/06/15 10:51:28;;;;;;;1.70;1.48;;;;;;;;;;4216790;34;20093;-65
2022/06/15 10:54:33;;;;;;;1.48;1.37;;;;;;;;;;4205061;34;20129;-65
2022/06/15 11:03:27;;;;;;;1.35;1.25;;;;;;;;;;4218043;34;20447;-65
2022/06/15 11:05:54;;;;;;;1.30;1.20;;;;;;;;;;4216485;34;20132;-69
2022/06/15 11:08:24;;;;;;;1.83;1.48;;;;;;;;;;4205040;34;20509;-69
2022/06/15 11:10:52;;;;;;;4.43;2.10;;;;;;;;;;4208088;34;20153;-66
2022/06/15 11:13:36;;;;;;;2.25;1.62;;;;;;;;;;4222591;34;20120;-69
2022/06/15 11:19:19;;;;;;;2.40;1.62;;;;;;;;;;4222208;34;20145;-67
2022/06/15 11:21:48;;;;;;;4.30;1.70;;;;;;;;;;4219147;34;20209;-68
2022/06/15 11:24:23;;;;;;;2.97;2.22;;;;;;;;;;4218431;34;20106;-68
2022/06/15 11:26:53;;;;;;;3.37;1.92;;;;;;;;;;4218523;34;20116;-64
2022/06/15 11:29:44;;;;;;;2.12;1.12;;;;;;;;;;4218396;34;20120;-63
2022/06/15 11:32:48;;;;;;;4.60;1.67;;;;;;;;;;4218463;34;21060;-68
2022/06/15 11:35:14;;;;;;;1.55;1.45;;;;;;;;;;4215582;34;20140;-67
2022/06/15 11:38:02;;;;;;;2.55;1.45;;;;;;;;;;4219815;34;20459;-66
2022/06/15 11:40:47;;;;;;;2.40;1.77;;;;;;;;;;4206475;34;20106;-67
2022/06/15 11:43:17;;;;;;;1.85;1.60;;;;;;;;;;4207275;34;20592;-63
2022/06/15 11:45:54;;;;;;;3.10;2.22;;;;;;;;;;4208674;34;20085;-63
2022/06/15 11:48:41;;;;;;;1.23;1.20;;;;;;;;;;4209846;34;20441;-62
2022/06/15 11:51:14;;;;;;;2.92;1.62;;;;;;;;;;4222674;34;20189;-62
2022/06/15 11:53:55;;;;;;;1.50;1.40;;;;;;;;;;4222321;34;20110;-62
2022/06/15 11:56:22;;;;;;;2.17;1.60;;;;;;;;;;4222509;34;20129;-62
2022/06/15 11:59:44;;;;;;;1.60;1.50;;;;;;;;;;4209204;34;20097;-62
2022/06/15 12:02:35;;;;;;;1.50;1.40;;;;;;;;;;4180827;34;20202;-63
2022/06/15 12:05:16;;;;;;;2.30;1.77;;;;;;;;;;4208163;34;20117;-63
2022/06/15 12:08:07;;;;;;;2.05;1.62;;;;;;;;;;4198336;34;20112;-63
2022/06/15 12:11:05;;;;;;;1.83;1.70;;;;;;;;;;4222294;34;20116;-63
2022/06/15 12:14:00;;;;;;;3.15;1.62;;;;;;;;;;4205771;34;20209;-63
2022/06/15 12:16:52;;;;;;;1.80;1.40;;;;;;;;;;4197613;34;20185;-63
2022/06/15 12:19:58;;;;;;;1.90;1.70;;;;;;;;;;4222061;34;20102;-62
2022/06/15 12:22:50;;;;;;;2.22;1.42;;;;;;;;;;4196882;34;20125;-60
2022/06/15 12:25:32;;;;;;;1.50;1.40;;;;;;;;;;4215554;34;20131;-62
2022/06/15 12:28:16;;;;;;;3.45;1.90;;;;;;;;;;4219576;34;20125;-61
2022/06/15 12:30:55;;;;;;;1.70;1.60;;;;;;;;;;4219422;34;20097;-63
2022/06/15 12:33:31;;;;;;;1.83;1.60;;;;;;;;;;4219232;34;20462;-62
2022/06/15 12:36:20;;;;;;;8.52;1.90;;;;;;;;;;4206598;34;20126;-63
2022/06/15 12:39:19;;;;;;;6.22;2.20;;;;;;;;;;4219373;34;20140;-63
2022/06/15 12:44:41;;;;;;;1.98;1.73;;;;;;;;;;4219461;34;20584;-63
2022/06/15 12:47:11;;;;;;;2.95;1.70;;;;;;;;;;4219366;34;20229;-63
2022/06/15 12:49:58;;;;;;;3.60;1.83;;;;;;;;;;4206343;34;20132;-63
2022/06/15 12:52:40;;;;;;;2.03;1.62;;;;;;;;;;4219198;34;20197;-60
2022/06/15 12:55:20;;;;;;;3.78;1.90;;;;;;;;;;4206568;34;20510;-61
2022/06/15 12:58:11;;;;;;;3.80;1.67;;;;;;;;;;4219243;34;20513;-61
2022/06/15 13:00:51;;;;;;;2.10;1.50;;;;;;;;;;4219245;34;20109;-62
2022/06/15 13:03:51;;;;;;;4.32;2.20;;;;;;;;;;4206403;34;20120;-62
2022/06/15 13:06:24;;;;;;;3.10;1.37;;;;;;;;;;4219299;34;20124;-61
2022/06/15 13:09:09;;;;;;;6.18;1.80;;;;;;;;;;4219127;34;20577;-62
2022/06/15 13:12:00;;;;;;;3.80;1.90;;;;;;;;;;4219199;34;20106;-61
2022/06/15 13:14:30;;;;;;;2.37;1.95;;;;;;;;;;4219160;34;20120;-62
2022/06/15 13:16:58;;;;;;;2.10;1.90;;;;;;;;;;4219091;34;20116;-61
2022/06/15 13:19:36;;;;;;;1.55;1.45;;;;;;;;;;4219183;34;20204;-63
2022/06/15 13:22:08;;;;;;;3.37;1.80;;;;;;;;;;4218891;34;20117;-63
2022/06/15 13:24:50;;;;;;;2.42;1.83;;;;;;;;;;4218936;34;20129;-63
2022/06/15 13:27:29;;;;;;;3.80;1.70;;;;;;;;;;4219136;34;20136;-62
2022/06/15 13:30:41;;;;;;;1.60;1.50;;;;;;;;;;4219123;34;20662;-63
2022/06/15 13:33:11;;;;;;;3.62;2.17;;;;;;;;;;4196055;34;20491;-60
2022/06/15 13:35:46;;;;;;;9.32;4.00;;;;;;;;;;4206211;34;20094;-62
2022/06/15 13:38:20;;;;;;;5.72;3.60;;;;;;;;;;4217143;34;20128;-62
2022/06/15 13:41:07;;;;;;;7.82;5.82;;;;;;;;;;4218932;34;20121;-61
2022/06/15 13:43:39;;;;;;;5.53;2.25;;;;;;;;;;4214344;33;20124;-63
2022/06/15 13:46:24;;;;;;;3.40;1.87;;;;;;;;;;4232921;33;20104;-62
2022/06/15 13:48:52;;;;;;;2.43;1.97;;;;;;;;;;4219289;33;20144;-61
2022/06/15 13:51:34;;;;;;;7.55;1.83;;;;;;;;;;4232626;33;20089;-61
2022/06/15 13:54:21;;;;;;;3.50;1.70;;;;;;;;;;4200323;34;20102;-61
2022/06/15 13:57:11;;;;;;;4.00;1.77;;;;;;;;;;4194129;34;20521;-60
2022/06/15 14:00:10;;;;;;;3.05;2.03;;;;;;;;;;4230701;33;20128;-63
2022/06/15 14:03:13;;;;;;;5.93;1.92;;;;;;;;;;4207512;34;20220;-62
2022/06/15 14:05:52;;;;;;;1.20;1.20;;;;;;;;;;4219352;33;20102;-63
2022/06/15 14:08:37;;;;;;;2.35;1.55;;;;;;;;;;4231222;33;20112;-61
2022/06/15 14:11:17;;;;;;;2.10;1.63;;;;;;;;;;4232310;33;20121;-62
2022/06/15 14:14:00;;;;;;;2.00;1.60;;;;;;;;;;4207502;33;20101;-62
2022/06/15 14:17:00;;;;;;;2.12;1.92;;;;;;;;;;4219150;33;20124;-63
2022/06/15 14:19:37;;;;;;;7.40;1.77;;;;;;;;;;4219410;33;20100;-63
2022/06/15 14:22:10;;;;;;;7.35;2.08;;;;;;;;;;4219174;33;20105;-62
2022/06/15 14:24:37;;;;;;;5.85;2.00;;;;;;;;;;4231842;33;20128;-63
2022/06/15 14:27:07;;;;;;;4.12;1.95;;;;;;;;;;4230624;33;20211;-63
2022/06/15 14:29:41;;;;;;;5.43;1.75;;;;;;;;;;4219401;33;20113;-63
2022/06/15 14:32:07;;;;;;;3.43;1.77;;;;;;;;;;4219218;33;20589;-61
2022/06/15 14:34:36;;;;;;;3.60;1.73;;;;;;;;;;4230459;33;20109;-62
2022/06/15 14:37:10;;;;;;;4.62;1.70;;;;;;;;;;4219418;33;20535;-62
2022/06/15 14:39:45;;;;;;;1.85;1.70;;;;;;;;;;4194080;34;20221;-62
2022/06/15 14:42:21;;;;;;;9.30;2.08;;;;;;;;;;4205334;34;20441;-63
2022/06/15 14:44:49;;;;;;;3.90;2.12;;;;;;;;;;4217411;34;20261;-62
2022/06/15 14:47:18;;;;;;;6.47;4.32;;;;;;;;;;4217956;34;20494;-69
2022/06/15 14:50:03;;;;;;;3.08;2.45;;;;;;;;;;4217875;34;20192;-63
2022/06/15 14:52:37;;;;;;;4.00;2.00;;;;;;;;;;4204124;34;20113;-64
2022/06/15 14:55:07;;;;;;;2.87;2.35;;;;;;;;;;4218002;34;20121;-62
2022/06/15 14:57:36;;;;;;;8.48;2.53;;;;;;;;;;4205023;34;20125;-66
2022/06/15 15:00:12;;;;;;;2.92;2.60;;;;;;;;;;4204567;34;20117;-65
2022/06/15 15:02:39;;;;;;;5.50;2.47;;;;;;;;;;4204879;34;20123;-64
2022/06/15 15:05:06;;;;;;;4.78;2.55;;;;;;;;;;4205209;34;20171;-64
2022/06/15 15:10:30;;;;;;;5.78;2.37;;;;;;;;;;4217815;34;20117;-64
2022/06/15 15:13:39;;;;;;;3.42;1.98;;;;;;;;;;4204415;34;20189;-63
2022/06/15 15:16:07;;;;;;;4.00;2.17;;;;;;;;;;4162359;34;20111;-65
2022/06/15 15:18:49;;;;;;;4.70;1.85;;;;;;;;;;4211164;34;20137;-65
2022/06/15 15:21:31;;;;;;;6.50;2.30;;;;;;;;;;4204715;34;20188;-61
2022/06/15 15:24:01;;;;;;;9.30;2.62;;;;;;;;;;4217608;34;20457;-62
2022/06/15 15:26:38;;;;;;;3.35;2.33;;;;;;;;;;4217351;34;20125;-63
2022/06/15 15:35:14;;;;;;;8.60;2.30;;;;;;;;;;4217470;34;20445;-61
2022/06/15 15:37:41;;;;;;;7.05;2.08;;;;;;;;;;4229652;33;20119;-60
2022/06/15 15:40:34;;;;;;;7.07;2.25;;;;;;;;;;4231654;33;20184;-62
2022/06/15 15:43:00;;;;;;;3.72;2.80;;;;;;;;;;4229233;33;20236;-62
2022/06/15 15:45:26;;;;;;;9.00;2.83;;;;;;;;;;4218144;33;20105;-63
2022/06/15 15:47:52;;;;;;;3.58;2.35;;;;;;;;;;4231435;33;20216;-62
2022/06/15 15:50:19;;;;;;;5.93;3.17;;;;;;;;;;4230525;33;20183;-63
2022/06/15 15:52:46;;;;;;;4.00;2.12;;;;;;;;;;4231376;33;20196;-61
2022/06/15 15:55:14;;;;;;;3.87;3.25;;;;;;;;;;4231561;33;20184;-63
2022/06/15 15:57:41;;;;;;;4.55;2.62;;;;;;;;;;4233349;33;20108;-63
2022/06/15 16:00:11;;;;;;;5.93;2.42;;;;;;;;;;4233711;33;20144;-62
2022/06/15 16:02:38;;;;;;;6.78;3.50;;;;;;;;;;4220840;33;20181;-62
2022/06/15 16:05:05;;;;;;;9.15;2.70;;;;;;;;;;4233686;33;20441;-59
2022/06/15 16:07:34;;;;;;;5.07;2.58;;;;;;;;;;4197673;33;20109;-63
2022/06/15 16:10:04;;;;;;;10.45;2.78;;;;;;;;;;4233660;33;20120;-62
2022/06/15 16:12:31;;;;;;;10.95;3.15;;;;;;;;;;4233432;33;20468;-63
2022/06/15 16:14:58;;;;;;;3.33;2.50;;;;;;;;;;4220590;33;20093;-65
2022/06/15 16:17:26;;;;;;;8.40;4.70;;;;;;;;;;4208996;33;20097;-61
2022/06/15 16:19:53;;;;;;;4.82;3.20;;;;;;;;;;4232182;33;20131;-65